sensor_id;sensor_type;location;lat;lon;timestamp;temperature;humidity
35607;DHT22;21729;58.392;15.656;2022-10-16T00:01:16;11.00;1.00
35607;DHT22;21729;58.392;15.656;2022-10-16T00:03:45;11.00;1.00
35607;DHT22;21729;58.392;15.656;2022-10-16T00:06:12;11.10;1.00
35607;DHT22;21729;58.392;15.656;2022-10-16T00:08:41;11.10;1.00
35607;DHT22;21729;58.392;15.656;2022-10-16T00:11:10;11.20;1.00
35607;DHT22;21729;58.392;15.656;2022-10-16T00:13:41;11.20;1.00
35607;DHT22;21729;58.392;15.656;2022-10-16T00:16:10;11.20;1.00
35607;DHT22;21729;58.392;15.656;2022-10-16T00:18:38;11.30;1.00
35607;DHT22;21729;58.392;15.656;2022-10-16T00:21:07;11.30;1.00
35607;DHT22;21729;58.392;15.656;2022-10-16T00:23:35;11.30;1.00
35607;DHT22;21729;58.392;15.656;2022-10-16T00:26:05;11.30;1.00
35607;DHT22;21729;58.392;15.656;2022-10-16T00:28:33;11.40;1.00
35607;DHT22;21729;58.392;15.656;2022-10-16T00:31:04;11.50;99.90
35607;DHT22;21729;58.392;15.656;2022-10-16T00:33:31;11.50;99.90
35607;DHT22;21729;58.392;15.656;2022-10-16T00:35:58;11.60;99.90
35607;DHT22;21729;58.392;15.656;2022-10-16T00:38:26;11.60;99.90
35607;DHT22;21729;58.392;15.656;2022-10-16T00:40:53;11.50;99.90
35607;DHT22;21729;58.392;15.656;2022-10-16T00:43:35;11.40;99.90
35607;DHT22;21729;58.392;15.656;2022-10-16T00:46:08;11.40;99.90
35607;DHT22;21729;58.392;15.656;2022-10-16T00:48:37;11.40;99.90
35607;DHT22;21729;58.392;15.656;2022-10-16T00:51:06;11.30;99.90
35607;DHT22;21729;58.392;15.656;2022-10-16T00:53:35;11.20;99.90
35607;DHT22;21729;58.392;15.656;2022-10-16T00:56:02;11.30;1.00
35607;DHT22;21729;58.392;15.656;2022-10-16T00:58:30;11.30;1.00
35607;DHT22;21729;58.392;15.656;2022-10-16T01:00:57;11.20;1.40
35607;DHT22;21729;58.392;15.656;2022-10-16T01:03:27;11.20;1.00
35607;DHT22;21729;58.392;15.656;2022-10-16T01:06:04;11.30;1.00
35607;DHT22;21729;58.392;15.656;2022-10-16T01:08:39;11.40;99.90
35607;DHT22;21729;58.392;15.656;2022-10-16T01:11:14;11.40;1.00
35607;DHT22;21729;58.392;15.656;2022-10-16T01:13:50;11.50;99.90
35607;DHT22;21729;58.392;15.656;2022-10-16T01:16:30;11.60;99.90
35607;DHT22;21729;58.392;15.656;2022-10-16T01:19:05;11.60;99.90
35607;DHT22;21729;58.392;15.656;2022-10-16T01:21:39;11.60;99.90
35607;DHT22;21729;58.392;15.656;2022-10-16T01:24:12;11.60;99.90
35607;DHT22;21729;58.392;15.656;2022-10-16T01:27:05;11.60;99.90
35607;DHT22;21729;58.392;15.656;2022-10-16T01:29:36;11.60;99.90
35607;DHT22;21729;58.392;15.656;2022-10-16T01:32:09;11.50;1.00
35607;DHT22;21729;58.392;15.656;2022-10-16T01:34:41;11.50;1.00
35607;DHT22;21729;58.392;15.656;2022-10-16T01:37:12;11.50;1.00
35607;DHT22;21729;58.392;15.656;2022-10-16T01:39:45;11.50;1.00
35607;DHT22;21729;58.392;15.656;2022-10-16T01:42:18;11.40;1.00
35607;DHT22;21729;58.392;15.656;2022-10-16T01:44:48;11.40;1.00
35607;DHT22;21729;58.392;15.656;2022-10-16T01:47:17;11.40;1.00
35607;DHT22;21729;58.392;15.656;2022-10-16T01:49:46;11.40;1.00
35607;DHT22;21729;58.392;15.656;2022-10-16T01:52:16;11.40;1.00
35607;DHT22;21729;58.392;15.656;2022-10-16T01:54:47;11.30;1.00
35607;DHT22;21729;58.392;15.656;2022-10-16T01:57:17;11.30;1.00
35607;DHT22;21729;58.392;15.656;2022-10-16T01:59:46;11.40;1.00
35607;DHT22;21729;58.392;15.656;2022-10-16T02:02:15;11.30;1.00
35607;DHT22;21729;58.392;15.656;2022-10-16T02:04:46;11.40;1.00
35607;DHT22;21729;58.392;15.656;2022-10-16T02:07:14;11.30;1.00
35607;DHT22;21729;58.392;15.656;2022-10-16T02:09:42;11.30;1.00
35607;DHT22;21729;58.392;15.656;2022-10-16T02:12:13;11.30;1.00
35607;DHT22;21729;58.392;15.656;2022-10-16T02:14:42;11.30;1.00
35607;DHT22;21729;58.392;15.656;2022-10-16T02:17:14;11.30;1.00
35607;DHT22;21729;58.392;15.656;2022-10-16T02:19:43;11.30;1.00
35607;DHT22;21729;58.392;15.656;2022-10-16T02:22:16;11.30;1.00
35607;DHT22;21729;58.392;15.656;2022-10-16T02:24:51;11.30;1.00
35607;DHT22;21729;58.392;15.656;2022-10-16T02:27:23;11.30;1.00
35607;DHT22;21729;58.392;15.656;2022-10-16T02:29:56;11.30;1.00
35607;DHT22;21729;58.392;15.656;2022-10-16T02:32:30;11.20;1.00
35607;DHT22;21729;58.392;15.656;2022-10-16T02:34:58;11.30;1.00
35607;DHT22;21729;58.392;15.656;2022-10-16T02:37:27;11.20;1.00
35607;DHT22;21729;58.392;15.656;2022-10-16T02:39:56;11.20;1.00
35607;DHT22;21729;58.392;15.656;2022-10-16T02:42:28;11.20;1.00
35607;DHT22;21729;58.392;15.656;2022-10-16T02:44:57;11.20;1.00
35607;DHT22;21729;58.392;15.656;2022-10-16T02:47:24;11.10;1.00
35607;DHT22;21729;58.392;15.656;2022-10-16T02:49:51;11.10;1.00
35607;DHT22;21729;58.392;15.656;2022-10-16T02:52:18;11.10;1.00
35607;DHT22;21729;58.392;15.656;2022-10-16T02:54:45;11.00;1.00
35607;DHT22;21729;58.392;15.656;2022-10-16T02:57:12;11.00;1.00
35607;DHT22;21729;58.392;15.656;2022-10-16T02:59:40;11.10;1.00
35607;DHT22;21729;58.392;15.656;2022-10-16T03:02:08;11.10;1.00
35607;DHT22;21729;58.392;15.656;2022-10-16T03:04:35;11.10;1.00
35607;DHT22;21729;58.392;15.656;2022-10-16T03:07:03;11.10;1.00
35607;DHT22;21729;58.392;15.656;2022-10-16T03:09:30;11.20;1.00
35607;DHT22;21729;58.392;15.656;2022-10-16T03:11:57;11.10;1.00
35607;DHT22;21729;58.392;15.656;2022-10-16T03:14:24;11.20;1.00
35607;DHT22;21729;58.392;15.656;2022-10-16T03:16:51;11.20;1.00
35607;DHT22;21729;58.392;15.656;2022-10-16T03:19:20;11.20;1.00
35607;DHT22;21729;58.392;15.656;2022-10-16T03:21:47;11.20;1.00
35607;DHT22;21729;58.392;15.656;2022-10-16T03:24:14;11.20;1.00
35607;DHT22;21729;58.392;15.656;2022-10-16T03:26:41;11.20;1.00
35607;DHT22;21729;58.392;15.656;2022-10-16T03:29:08;11.20;1.00
35607;DHT22;21729;58.392;15.656;2022-10-16T03:31:35;11.20;1.00
35607;DHT22;21729;58.392;15.656;2022-10-16T03:34:02;11.20;1.00
35607;DHT22;21729;58.392;15.656;2022-10-16T03:36:30;11.20;1.00
35607;DHT22;21729;58.392;15.656;2022-10-16T03:38:57;11.40;1.00
35607;DHT22;21729;58.392;15.656;2022-10-16T03:41:24;11.20;1.00
35607;DHT22;21729;58.392;15.656;2022-10-16T03:43:51;11.20;1.00
35607;DHT22;21729;58.392;15.656;2022-10-16T03:46:18;11.20;1.00
35607;DHT22;21729;58.392;15.656;2022-10-16T03:48:45;11.20;1.00
35607;DHT22;21729;58.392;15.656;2022-10-16T03:51:13;11.10;1.00
35607;DHT22;21729;58.392;15.656;2022-10-16T03:53:41;11.10;1.00
35607;DHT22;21729;58.392;15.656;2022-10-16T03:56:08;11.00;1.00
35607;DHT22;21729;58.392;15.656;2022-10-16T03:58:35;11.00;1.00
35607;DHT22;21729;58.392;15.656;2022-10-16T04:01:02;10.90;1.00
35607;DHT22;21729;58.392;15.656;2022-10-16T04:03:29;10.80;1.00
35607;DHT22;21729;58.392;15.656;2022-10-16T04:05:56;10.80;1.00
35607;DHT22;21729;58.392;15.656;2022-10-16T04:08:26;10.70;1.00
35607;DHT22;21729;58.392;15.656;2022-10-16T04:10:54;10.60;1.00
35607;DHT22;21729;58.392;15.656;2022-10-16T04:13:21;10.60;1.00
35607;DHT22;21729;58.392;15.656;2022-10-16T04:15:48;10.50;1.00
35607;DHT22;21729;58.392;15.656;2022-10-16T04:18:15;10.50;1.00
35607;DHT22;21729;58.392;15.656;2022-10-16T04:20:42;10.50;1.00
35607;DHT22;21729;58.392;15.656;2022-10-16T04:23:09;10.40;1.00
35607;DHT22;21729;58.392;15.656;2022-10-16T04:25:36;10.40;1.00
35607;DHT22;21729;58.392;15.656;2022-10-16T04:28:05;10.40;1.00
35607;DHT22;21729;58.392;15.656;2022-10-16T04:30:32;10.40;1.00
35607;DHT22;21729;58.392;15.656;2022-10-16T04:33:00;10.30;1.00
35607;DHT22;21729;58.392;15.656;2022-10-16T04:35:27;10.30;1.00
35607;DHT22;21729;58.392;15.656;2022-10-16T04:37:54;10.30;1.00
35607;DHT22;21729;58.392;15.656;2022-10-16T04:40:21;10.30;1.00
35607;DHT22;21729;58.392;15.656;2022-10-16T04:42:48;10.30;1.00
35607;DHT22;21729;58.392;15.656;2022-10-16T04:45:16;10.20;1.00
35607;DHT22;21729;58.392;15.656;2022-10-16T04:47:44;10.20;1.00
35607;DHT22;21729;58.392;15.656;2022-10-16T04:50:11;10.20;1.00
35607;DHT22;21729;58.392;15.656;2022-10-16T04:52:38;10.10;1.00
35607;DHT22;21729;58.392;15.656;2022-10-16T04:55:05;10.10;1.00
35607;DHT22;21729;58.392;15.656;2022-10-16T04:57:33;10.20;1.00
35607;DHT22;21729;58.392;15.656;2022-10-16T05:00:00;10.10;1.00
35607;DHT22;21729;58.392;15.656;2022-10-16T05:02:30;10.10;1.00
35607;DHT22;21729;58.392;15.656;2022-10-16T05:04:57;10.00;1.00
35607;DHT22;21729;58.392;15.656;2022-10-16T05:07:24;10.00;1.00
35607;DHT22;21729;58.392;15.656;2022-10-16T05:09:51;10.00;1.00
35607;DHT22;21729;58.392;15.656;2022-10-16T05:12:18;10.00;1.00
35607;DHT22;21729;58.392;15.656;2022-10-16T05:14:46;10.00;1.00
35607;DHT22;21729;58.392;15.656;2022-10-16T05:17:13;10.00;1.00
35607;DHT22;21729;58.392;15.656;2022-10-16T05:19:41;10.00;1.00
35607;DHT22;21729;58.392;15.656;2022-10-16T05:22:08;9.90;1.00
35607;DHT22;21729;58.392;15.656;2022-10-16T05:24:36;9.90;1.00
35607;DHT22;21729;58.392;15.656;2022-10-16T05:27:03;9.90;1.00
35607;DHT22;21729;58.392;15.656;2022-10-16T05:29:30;9.80;1.00
35607;DHT22;21729;58.392;15.656;2022-10-16T05:31:57;9.90;1.00
35607;DHT22;21729;58.392;15.656;2022-10-16T05:34:24;9.90;1.00
35607;DHT22;21729;58.392;15.656;2022-10-16T05:36:53;9.90;1.00
35607;DHT22;21729;58.392;15.656;2022-10-16T05:39:20;9.80;1.00
35607;DHT22;21729;58.392;15.656;2022-10-16T05:41:49;9.80;1.00
35607;DHT22;21729;58.392;15.656;2022-10-16T05:44:17;9.70;1.00
35607;DHT22;21729;58.392;15.656;2022-10-16T05:46:46;9.70;1.00
35607;DHT22;21729;58.392;15.656;2022-10-16T05:49:13;9.70;1.00
35607;DHT22;21729;58.392;15.656;2022-10-16T05:51:40;9.80;1.00
35607;DHT22;21729;58.392;15.656;2022-10-16T05:54:09;9.80;1.00
35607;DHT22;21729;58.392;15.656;2022-10-16T05:56:37;9.80;1.00
35607;DHT22;21729;58.392;15.656;2022-10-16T05:59:05;9.90;1.00
35607;DHT22;21729;58.392;15.656;2022-10-16T06:01:32;9.90;1.00
35607;DHT22;21729;58.392;15.656;2022-10-16T06:03:59;10.00;1.00
35607;DHT22;21729;58.392;15.656;2022-10-16T06:06:27;10.00;1.00
35607;DHT22;21729;58.392;15.656;2022-10-16T06:08:56;10.20;1.00
35607;DHT22;21729;58.392;15.656;2022-10-16T06:11:29;10.20;1.00
35607;DHT22;21729;58.392;15.656;2022-10-16T06:13:58;10.00;1.00
35607;DHT22;21729;58.392;15.656;2022-10-16T06:16:27;10.20;1.00
35607;DHT22;21729;58.392;15.656;2022-10-16T06:18:55;10.30;1.00
35607;DHT22;21729;58.392;15.656;2022-10-16T06:21:24;10.30;1.00
35607;DHT22;21729;58.392;15.656;2022-10-16T06:23:51;10.30;1.00
35607;DHT22;21729;58.392;15.656;2022-10-16T06:26:20;10.70;1.00
35607;DHT22;21729;58.392;15.656;2022-10-16T06:28:49;10.40;1.00
35607;DHT22;21729;58.392;15.656;2022-10-16T06:31:17;10.40;1.00
35607;DHT22;21729;58.392;15.656;2022-10-16T06:33:44;10.50;1.00
35607;DHT22;21729;58.392;15.656;2022-10-16T06:36:14;10.60;1.00
35607;DHT22;21729;58.392;15.656;2022-10-16T06:38:41;10.70;1.00
35607;DHT22;21729;58.392;15.656;2022-10-16T06:41:11;10.70;1.00
35607;DHT22;21729;58.392;15.656;2022-10-16T06:43:38;10.80;1.00
35607;DHT22;21729;58.392;15.656;2022-10-16T06:46:09;10.90;1.00
35607;DHT22;21729;58.392;15.656;2022-10-16T06:48:37;10.90;1.00
35607;DHT22;21729;58.392;15.656;2022-10-16T06:51:06;11.00;1.00
35607;DHT22;21729;58.392;15.656;2022-10-16T06:53:34;11.10;1.00
35607;DHT22;21729;58.392;15.656;2022-10-16T06:56:07;11.20;1.00
35607;DHT22;21729;58.392;15.656;2022-10-16T06:58:37;11.20;1.00
35607;DHT22;21729;58.392;15.656;2022-10-16T07:01:06;11.30;1.00
35607;DHT22;21729;58.392;15.656;2022-10-16T07:03:36;11.30;1.00
35607;DHT22;21729;58.392;15.656;2022-10-16T07:06:04;11.40;1.00
35607;DHT22;21729;58.392;15.656;2022-10-16T07:08:32;11.40;99.90
35607;DHT22;21729;58.392;15.656;2022-10-16T07:11:00;11.40;99.90
35607;DHT22;21729;58.392;15.656;2022-10-16T07:13:27;11.50;99.90
35607;DHT22;21729;58.392;15.656;2022-10-16T07:15:54;11.60;99.90
35607;DHT22;21729;58.392;15.656;2022-10-16T07:18:22;11.70;99.90
35607;DHT22;21729;58.392;15.656;2022-10-16T07:20:52;11.70;99.90
35607;DHT22;21729;58.392;15.656;2022-10-16T07:23:19;11.70;99.90
35607;DHT22;21729;58.392;15.656;2022-10-16T07:25:53;11.90;99.90
35607;DHT22;21729;58.392;15.656;2022-10-16T07:28:21;12.00;99.90
35607;DHT22;21729;58.392;15.656;2022-10-16T07:30:48;12.00;99.90
35607;DHT22;21729;58.392;15.656;2022-10-16T07:33:15;12.10;99.90
35607;DHT22;21729;58.392;15.656;2022-10-16T07:35:49;12.20;99.90
35607;DHT22;21729;58.392;15.656;2022-10-16T07:38:17;12.30;99.90
35607;DHT22;21729;58.392;15.656;2022-10-16T07:40:44;12.30;99.90
35607;DHT22;21729;58.392;15.656;2022-10-16T07:43:11;12.40;99.90
35607;DHT22;21729;58.392;15.656;2022-10-16T07:45:46;12.50;99.90
35607;DHT22;21729;58.392;15.656;2022-10-16T07:48:17;12.50;1.00
35607;DHT22;21729;58.392;15.656;2022-10-16T07:50:44;13.10;1.00
35607;DHT22;21729;58.392;15.656;2022-10-16T07:53:15;13.80;1.00
35607;DHT22;21729;58.392;15.656;2022-10-16T07:55:42;14.00;1.00
35607;DHT22;21729;58.392;15.656;2022-10-16T07:58:09;13.90;99.90
35607;DHT22;21729;58.392;15.656;2022-10-16T08:00:37;14.10;99.90
35607;DHT22;21729;58.392;15.656;2022-10-16T08:03:04;13.90;99.90
35607;DHT22;21729;58.392;15.656;2022-10-16T08:05:32;13.80;99.90
35607;DHT22;21729;58.392;15.656;2022-10-16T08:08:00;13.70;99.90
35607;DHT22;21729;58.392;15.656;2022-10-16T08:10:29;13.70;99.90
35607;DHT22;21729;58.392;15.656;2022-10-16T08:12:57;13.70;99.90
35607;DHT22;21729;58.392;15.656;2022-10-16T08:15:24;13.90;99.90
35607;DHT22;21729;58.392;15.656;2022-10-16T08:17:56;13.90;99.90
35607;DHT22;21729;58.392;15.656;2022-10-16T08:20:23;13.80;99.90
35607;DHT22;21729;58.392;15.656;2022-10-16T08:22:50;13.70;1.00
35607;DHT22;21729;58.392;15.656;2022-10-16T08:25:17;13.60;1.00
35607;DHT22;21729;58.392;15.656;2022-10-16T08:27:45;13.40;1.00
35607;DHT22;21729;58.392;15.656;2022-10-16T08:30:13;13.20;1.00
35607;DHT22;21729;58.392;15.656;2022-10-16T08:32:40;13.00;1.00
35607;DHT22;21729;58.392;15.656;2022-10-16T08:35:08;13.00;1.00
35607;DHT22;21729;58.392;15.656;2022-10-16T08:37:36;13.00;1.00
35607;DHT22;21729;58.392;15.656;2022-10-16T08:40:04;13.10;38.30
35607;DHT22;21729;58.392;15.656;2022-10-16T08:42:42;13.10;1.00
35607;DHT22;21729;58.392;15.656;2022-10-16T08:45:31;13.20;1.00
35607;DHT22;21729;58.392;15.656;2022-10-16T08:48:11;13.40;1.00
35607;DHT22;21729;58.392;15.656;2022-10-16T08:50:41;13.40;1.00
35607;DHT22;21729;58.392;15.656;2022-10-16T08:53:15;13.40;1.00
35607;DHT22;21729;58.392;15.656;2022-10-16T08:55:44;13.20;1.00
35607;DHT22;21729;58.392;15.656;2022-10-16T08:58:14;13.10;1.00
35607;DHT22;21729;58.392;15.656;2022-10-16T09:00:46;13.00;1.00
35607;DHT22;21729;58.392;15.656;2022-10-16T09:03:21;13.20;1.00
35607;DHT22;21729;58.392;15.656;2022-10-16T09:06:04;14.00;1.00
35607;DHT22;21729;58.392;15.656;2022-10-16T09:08:39;13.90;99.90
35607;DHT22;21729;58.392;15.656;2022-10-16T09:11:13;13.60;1.00
35607;DHT22;21729;58.392;15.656;2022-10-16T09:13:49;13.50;1.00
35607;DHT22;21729;58.392;15.656;2022-10-16T09:16:21;14.70;99.90
35607;DHT22;21729;58.392;15.656;2022-10-16T09:18:55;15.60;99.90
35607;DHT22;21729;58.392;15.656;2022-10-16T09:21:26;15.90;91.60
35607;DHT22;21729;58.392;15.656;2022-10-16T09:23:57;16.30;1.00
35607;DHT22;21729;58.392;15.656;2022-10-16T09:26:25;16.50;1.00
35607;DHT22;21729;58.392;15.656;2022-10-16T09:28:52;16.60;1.00
35607;DHT22;21729;58.392;15.656;2022-10-16T09:31:22;17.00;1.00
35607;DHT22;21729;58.392;15.656;2022-10-16T09:33:53;18.00;99.90
35607;DHT22;21729;58.392;15.656;2022-10-16T09:36:23;19.30;99.90
35607;DHT22;21729;58.392;15.656;2022-10-16T09:39:03;18.90;99.90
35607;DHT22;21729;58.392;15.656;2022-10-16T09:41:33;17.90;99.90
35607;DHT22;21729;58.392;15.656;2022-10-16T09:44:02;18.30;99.90
35607;DHT22;21729;58.392;15.656;2022-10-16T09:46:33;17.60;99.90
35607;DHT22;21729;58.392;15.656;2022-10-16T09:49:03;17.90;99.90
35607;DHT22;21729;58.392;15.656;2022-10-16T09:51:34;16.80;99.90
35607;DHT22;21729;58.392;15.656;2022-10-16T09:54:13;16.30;1.00
35607;DHT22;21729;58.392;15.656;2022-10-16T09:56:40;15.70;1.00
35607;DHT22;21729;58.392;15.656;2022-10-16T09:59:11;15.90;1.00
35607;DHT22;21729;58.392;15.656;2022-10-16T10:01:43;15.20;1.00
35607;DHT22;21729;58.392;15.656;2022-10-16T10:04:11;14.70;32.30
35607;DHT22;21729;58.392;15.656;2022-10-16T10:06:43;14.40;99.90
35607;DHT22;21729;58.392;15.656;2022-10-16T10:09:17;14.20;99.90
35607;DHT22;21729;58.392;15.656;2022-10-16T10:11:49;14.10;99.90
35607;DHT22;21729;58.392;15.656;2022-10-16T10:14:28;14.00;99.90
35607;DHT22;21729;58.392;15.656;2022-10-16T10:17:13;14.20;99.90
35607;DHT22;21729;58.392;15.656;2022-10-16T10:19:44;14.50;99.90
35607;DHT22;21729;58.392;15.656;2022-10-16T10:22:23;14.40;99.90
35607;DHT22;21729;58.392;15.656;2022-10-16T10:25:12;14.40;99.90
35607;DHT22;21729;58.392;15.656;2022-10-16T10:27:47;14.40;99.90
35607;DHT22;21729;58.392;15.656;2022-10-16T10:30:20;14.90;99.90
35607;DHT22;21729;58.392;15.656;2022-10-16T10:32:57;15.10;34.20
35607;DHT22;21729;58.392;15.656;2022-10-16T10:35:32;14.80;39.50
35607;DHT22;21729;58.392;15.656;2022-10-16T10:38:13;14.70;73.90
35607;DHT22;21729;58.392;15.656;2022-10-16T10:40:50;14.70;99.90
35607;DHT22;21729;58.392;15.656;2022-10-16T10:43:26;14.50;99.90
35607;DHT22;21729;58.392;15.656;2022-10-16T10:46:00;14.60;99.90
35607;DHT22;21729;58.392;15.656;2022-10-16T10:48:51;14.60;46.10
35607;DHT22;21729;58.392;15.656;2022-10-16T10:51:25;14.50;81.10
35607;DHT22;21729;58.392;15.656;2022-10-16T10:54:05;14.40;77.20
35607;DHT22;21729;58.392;15.656;2022-10-16T10:56:43;14.50;79.40
35607;DHT22;21729;58.392;15.656;2022-10-16T10:59:32;14.30;40.10
35607;DHT22;21729;58.392;15.656;2022-10-16T11:02:04;14.40;4.40
35607;DHT22;21729;58.392;15.656;2022-10-16T11:04:54;14.50;74.70
35607;DHT22;21729;58.392;15.656;2022-10-16T11:07:27;14.50;60.80
35607;DHT22;21729;58.392;15.656;2022-10-16T11:09:58;14.60;44.10
35607;DHT22;21729;58.392;15.656;2022-10-16T11:12:29;14.60;5.20
35607;DHT22;21729;58.392;15.656;2022-10-16T11:15:03;14.50;1.30
35607;DHT22;21729;58.392;15.656;2022-10-16T11:17:35;14.80;1.00
35607;DHT22;21729;58.392;15.656;2022-10-16T11:20:16;14.90;1.00
35607;DHT22;21729;58.392;15.656;2022-10-16T11:22:47;14.80;1.00
35607;DHT22;21729;58.392;15.656;2022-10-16T11:25:20;14.60;1.00
35607;DHT22;21729;58.392;15.656;2022-10-16T11:27:51;14.40;22.70
35607;DHT22;21729;58.392;15.656;2022-10-16T11:30:22;14.20;27.80
35607;DHT22;21729;58.392;15.656;2022-10-16T11:32:59;14.20;53.90
35607;DHT22;21729;58.392;15.656;2022-10-16T11:35:39;14.10;99.90
35607;DHT22;21729;58.392;15.656;2022-10-16T11:38:13;14.10;94.30
35607;DHT22;21729;58.392;15.656;2022-10-16T11:40:43;14.20;55.60
35607;DHT22;21729;58.392;15.656;2022-10-16T11:43:19;14.30;68.40
35607;DHT22;21729;58.392;15.656;2022-10-16T11:45:51;14.40;69.40
35607;DHT22;21729;58.392;15.656;2022-10-16T11:48:25;14.50;57.00
35607;DHT22;21729;58.392;15.656;2022-10-16T11:50:58;14.40;99.90
35607;DHT22;21729;58.392;15.656;2022-10-16T11:53:38;14.50;99.90
35607;DHT22;21729;58.392;15.656;2022-10-16T11:56:12;14.60;99.90
35607;DHT22;21729;58.392;15.656;2022-10-16T11:58:48;14.90;99.90
35607;DHT22;21729;58.392;15.656;2022-10-16T12:01:21;15.00;32.50
35607;DHT22;21729;58.392;15.656;2022-10-16T12:04:00;15.00;1.00
35607;DHT22;21729;58.392;15.656;2022-10-16T12:06:34;15.30;1.00
35607;DHT22;21729;58.392;15.656;2022-10-16T12:09:04;15.50;1.00
35607;DHT22;21729;58.392;15.656;2022-10-16T12:11:34;15.40;1.00
35607;DHT22;21729;58.392;15.656;2022-10-16T12:14:20;15.10;1.00
35607;DHT22;21729;58.392;15.656;2022-10-16T12:16:53;14.90;1.00
35607;DHT22;21729;58.392;15.656;2022-10-16T12:19:22;14.40;1.00
35607;DHT22;21729;58.392;15.656;2022-10-16T12:21:53;14.20;1.00
35607;DHT22;21729;58.392;15.656;2022-10-16T12:24:34;14.40;1.00
35607;DHT22;21729;58.392;15.656;2022-10-16T12:27:02;14.60;1.00
35607;DHT22;21729;58.392;15.656;2022-10-16T12:29:34;14.40;1.00
35607;DHT22;21729;58.392;15.656;2022-10-16T12:32:03;14.30;1.00
35607;DHT22;21729;58.392;15.656;2022-10-16T12:34:38;14.20;1.00
35607;DHT22;21729;58.392;15.656;2022-10-16T12:37:13;14.10;1.00
35607;DHT22;21729;58.392;15.656;2022-10-16T12:39:42;14.00;1.00
35607;DHT22;21729;58.392;15.656;2022-10-16T12:42:33;14.10;1.00
35607;DHT22;21729;58.392;15.656;2022-10-16T12:45:01;13.90;1.00
35607;DHT22;21729;58.392;15.656;2022-10-16T12:47:47;13.90;1.00
35607;DHT22;21729;58.392;15.656;2022-10-16T12:50:34;13.90;1.00
35607;DHT22;21729;58.392;15.656;2022-10-16T12:53:04;13.90;26.60
35607;DHT22;21729;58.392;15.656;2022-10-16T12:55:42;14.10;1.00
35607;DHT22;21729;58.392;15.656;2022-10-16T12:58:39;14.30;1.00
35607;DHT22;21729;58.392;15.656;2022-10-16T13:01:12;14.30;1.00
35607;DHT22;21729;58.392;15.656;2022-10-16T13:04:15;14.30;1.00
35607;DHT22;21729;58.392;15.656;2022-10-16T13:06:49;14.10;1.00
35607;DHT22;21729;58.392;15.656;2022-10-16T13:09:34;14.10;1.00
35607;DHT22;21729;58.392;15.656;2022-10-16T13:12:16;14.10;1.00
35607;DHT22;21729;58.392;15.656;2022-10-16T13:15:09;14.00;1.00
35607;DHT22;21729;58.392;15.656;2022-10-16T13:17:49;14.00;1.00
35607;DHT22;21729;58.392;15.656;2022-10-16T13:20:23;13.80;1.00
35607;DHT22;21729;58.392;15.656;2022-10-16T13:22:57;13.70;1.00
35607;DHT22;21729;58.392;15.656;2022-10-16T13:25:38;13.60;1.00
35607;DHT22;21729;58.392;15.656;2022-10-16T13:28:08;13.60;8.50
35607;DHT22;21729;58.392;15.656;2022-10-16T13:30:39;13.50;27.30
35607;DHT22;21729;58.392;15.656;2022-10-16T13:33:12;13.40;1.00
35607;DHT22;21729;58.392;15.656;2022-10-16T13:35:47;13.40;99.90
35607;DHT22;21729;58.392;15.656;2022-10-16T13:38:17;12.50;99.90
35607;DHT22;21729;58.392;15.656;2022-10-16T13:40:54;11.50;99.90
35607;DHT22;21729;58.392;15.656;2022-10-16T13:43:24;11.20;99.90
35607;DHT22;21729;58.392;15.656;2022-10-16T13:45:57;11.30;99.90
35607;DHT22;21729;58.392;15.656;2022-10-16T13:48:24;11.20;99.90
35607;DHT22;21729;58.392;15.656;2022-10-16T13:51:00;11.20;99.90
35607;DHT22;21729;58.392;15.656;2022-10-16T13:53:29;11.20;99.90
35607;DHT22;21729;58.392;15.656;2022-10-16T13:55:58;11.20;99.90
35607;DHT22;21729;58.392;15.656;2022-10-16T13:58:25;11.20;99.90
35607;DHT22;21729;58.392;15.656;2022-10-16T14:00:55;11.10;99.90
35607;DHT22;21729;58.392;15.656;2022-10-16T14:03:23;11.00;37.10
35607;DHT22;21729;58.392;15.656;2022-10-16T14:05:52;11.00;99.90
35607;DHT22;21729;58.392;15.656;2022-10-16T14:08:21;10.90;99.90
35607;DHT22;21729;58.392;15.656;2022-10-16T14:10:50;10.80;99.90
35607;DHT22;21729;58.392;15.656;2022-10-16T14:13:29;10.60;99.90
35607;DHT22;21729;58.392;15.656;2022-10-16T14:15:57;10.50;99.90
35607;DHT22;21729;58.392;15.656;2022-10-16T14:18:27;10.40;99.90
35607;DHT22;21729;58.392;15.656;2022-10-16T14:21:03;10.30;99.90
35607;DHT22;21729;58.392;15.656;2022-10-16T14:23:32;10.30;99.90
35607;DHT22;21729;58.392;15.656;2022-10-16T14:26:12;10.30;99.90
35607;DHT22;21729;58.392;15.656;2022-10-16T14:28:42;10.20;99.90
35607;DHT22;21729;58.392;15.656;2022-10-16T14:31:32;10.20;99.90
35607;DHT22;21729;58.392;15.656;2022-10-16T14:34:02;10.20;99.90
35607;DHT22;21729;58.392;15.656;2022-10-16T14:36:29;10.20;99.90
35607;DHT22;21729;58.392;15.656;2022-10-16T14:39:02;10.10;99.90
35607;DHT22;21729;58.392;15.656;2022-10-16T14:41:31;10.00;99.90
35607;DHT22;21729;58.392;15.656;2022-10-16T14:44:03;9.90;99.90
35607;DHT22;21729;58.392;15.656;2022-10-16T14:46:34;9.80;99.90
35607;DHT22;21729;58.392;15.656;2022-10-16T14:49:12;9.80;93.60
35607;DHT22;21729;58.392;15.656;2022-10-16T14:51:41;9.70;99.90
35607;DHT22;21729;58.392;15.656;2022-10-16T14:54:11;9.60;46.60
35607;DHT22;21729;58.392;15.656;2022-10-16T14:56:46;9.50;25.30
35607;DHT22;21729;58.392;15.656;2022-10-16T14:59:17;9.50;99.90
35607;DHT22;21729;58.392;15.656;2022-10-16T15:01:46;9.40;99.90
35607;DHT22;21729;58.392;15.656;2022-10-16T15:04:13;9.50;99.90
35607;DHT22;21729;58.392;15.656;2022-10-16T15:06:41;9.70;99.90
35607;DHT22;21729;58.392;15.656;2022-10-16T15:09:08;9.80;24.80
35607;DHT22;21729;58.392;15.656;2022-10-16T15:11:35;9.70;68.00
35607;DHT22;21729;58.392;15.656;2022-10-16T15:14:03;9.70;99.90
35607;DHT22;21729;58.392;15.656;2022-10-16T15:16:31;9.60;99.90
35607;DHT22;21729;58.392;15.656;2022-10-16T15:18:58;9.60;99.90
35607;DHT22;21729;58.392;15.656;2022-10-16T15:21:28;9.50;99.90
35607;DHT22;21729;58.392;15.656;2022-10-16T15:23:55;9.50;99.90
35607;DHT22;21729;58.392;15.656;2022-10-16T15:26:23;9.40;99.90
35607;DHT22;21729;58.392;15.656;2022-10-16T15:28:50;9.20;99.90
35607;DHT22;21729;58.392;15.656;2022-10-16T15:31:18;9.20;99.90
35607;DHT22;21729;58.392;15.656;2022-10-16T15:33:49;9.00;99.90
35607;DHT22;21729;58.392;15.656;2022-10-16T15:36:26;8.80;99.90
35607;DHT22;21729;58.392;15.656;2022-10-16T15:38:54;8.70;99.90
35607;DHT22;21729;58.392;15.656;2022-10-16T15:41:21;8.60;99.90
35607;DHT22;21729;58.392;15.656;2022-10-16T15:43:48;8.60;99.90
35607;DHT22;21729;58.392;15.656;2022-10-16T15:46:18;8.50;99.90
35607;DHT22;21729;58.392;15.656;2022-10-16T15:48:47;8.40;99.90
35607;DHT22;21729;58.392;15.656;2022-10-16T15:51:14;8.40;99.90